sensor_id;sensor_type;location;lat;lon;timestamp;P1;durP1;ratioP1;P2;durP2;ratioP2
73938;SDS011;62291;47.554;8.504;2022-10-20T00:00:56;20.40;;;14.52;;
73938;SDS011;62291;47.554;8.504;2022-10-20T00:03:23;23.17;;;15.20;;
73938;SDS011;62291;47.554;8.504;2022-10-20T00:05:49;22.58;;;14.55;;
73938;SDS011;62291;47.554;8.504;2022-10-20T00:08:15;23.13;;;14.98;;
73938;SDS011;62291;47.554;8.504;2022-10-20T00:10:41;21.98;;;15.85;;
73938;SDS011;62291;47.554;8.504;2022-10-20T00:13:07;22.35;;;15.63;;
73938;SDS011;62291;47.554;8.504;2022-10-20T00:15:33;21.63;;;15.43;;
73938;SDS011;62291;47.554;8.504;2022-10-20T00:17:59;20.63;;;14.60;;
73938;SDS011;62291;47.554;8.504;2022-10-20T00:20:24;25.58;;;16.23;;
73938;SDS011;62291;47.554;8.504;2022-10-20T00:22:50;21.30;;;15.82;;
73938;SDS011;62291;47.554;8.504;2022-10-20T00:25:16;20.95;;;16.35;;
73938;SDS011;62291;47.554;8.504;2022-10-20T00:27:42;24.98;;;16.38;;
73938;SDS011;62291;47.554;8.504;2022-10-20T00:30:08;22.17;;;16.02;;
73938;SDS011;62291;47.554;8.504;2022-10-20T00:32:34;25.58;;;15.68;;
73938;SDS011;62291;47.554;8.504;2022-10-20T00:34:59;26.88;;;16.00;;
73938;SDS011;62291;47.554;8.504;2022-10-20T00:37:25;20.38;;;15.82;;
73938;SDS011;62291;47.554;8.504;2022-10-20T00:39:51;22.98;;;15.13;;
73938;SDS011;62291;47.554;8.504;2022-10-20T00:42:17;25.48;;;15.75;;
73938;SDS011;62291;47.554;8.504;2022-10-20T00:47:13;20.15;;;14.55;;
73938;SDS011;62291;47.554;8.504;2022-10-20T00:49:46;22.27;;;15.13;;
73938;SDS011;62291;47.554;8.504;2022-10-20T00:52:14;22.80;;;15.43;;
73938;SDS011;62291;47.554;8.504;2022-10-20T00:54:42;27.30;;;15.40;;
73938;SDS011;62291;47.554;8.504;2022-10-20T00:57:08;24.50;;;15.88;;
73938;SDS011;62291;47.554;8.504;2022-10-20T00:59:34;27.58;;;16.05;;
73938;SDS011;62291;47.554;8.504;2022-10-20T01:02:02;22.10;;;14.65;;
73938;SDS011;62291;47.554;8.504;2022-10-20T01:04:30;24.83;;;16.90;;
73938;SDS011;62291;47.554;8.504;2022-10-20T01:06:57;24.50;;;15.98;;
73938;SDS011;62291;47.554;8.504;2022-10-20T01:09:23;21.75;;;16.38;;
73938;SDS011;62291;47.554;8.504;2022-10-20T01:14:34;22.87;;;16.00;;
73938;SDS011;62291;47.554;8.504;2022-10-20T01:28:11;25.23;;;16.23;;
73938;SDS011;62291;47.554;8.504;2022-10-20T01:30:55;24.30;;;16.65;;
73938;SDS011;62291;47.554;8.504;2022-10-20T01:36:26;22.27;;;16.85;;
73938;SDS011;62291;47.554;8.504;2022-10-20T01:39:02;22.35;;;16.25;;
73938;SDS011;62291;47.554;8.504;2022-10-20T01:41:34;24.33;;;16.40;;
73938;SDS011;62291;47.554;8.504;2022-10-20T01:44:04;24.07;;;16.77;;
73938;SDS011;62291;47.554;8.504;2022-10-20T01:46:33;26.25;;;17.08;;
73938;SDS011;62291;47.554;8.504;2022-10-20T01:49:03;27.17;;;17.10;;
73938;SDS011;62291;47.554;8.504;2022-10-20T01:51:30;25.33;;;15.95;;
73938;SDS011;62291;47.554;8.504;2022-10-20T01:53:57;24.10;;;16.05;;
73938;SDS011;62291;47.554;8.504;2022-10-20T01:56:28;26.67;;;16.60;;
73938;SDS011;62291;47.554;8.504;2022-10-20T01:59:25;25.27;;;17.38;;
73938;SDS011;62291;47.554;8.504;2022-10-20T02:08:22;28.13;;;17.10;;
73938;SDS011;62291;47.554;8.504;2022-10-20T02:11:03;23.58;;;17.15;;
73938;SDS011;62291;47.554;8.504;2022-10-20T02:13:31;27.45;;;17.20;;
73938;SDS011;62291;47.554;8.504;2022-10-20T02:16:01;25.75;;;17.33;;
73938;SDS011;62291;47.554;8.504;2022-10-20T02:21:02;27.27;;;17.40;;
73938;SDS011;62291;47.554;8.504;2022-10-20T02:23:29;25.52;;;17.85;;
73938;SDS011;62291;47.554;8.504;2022-10-20T02:25:57;25.50;;;16.58;;
73938;SDS011;62291;47.554;8.504;2022-10-20T02:28:24;27.80;;;16.38;;
73938;SDS011;62291;47.554;8.504;2022-10-20T02:30:52;29.65;;;17.80;;
73938;SDS011;62291;47.554;8.504;2022-10-20T02:33:19;28.17;;;18.42;;
73938;SDS011;62291;47.554;8.504;2022-10-20T02:35:50;28.60;;;18.30;;
73938;SDS011;62291;47.554;8.504;2022-10-20T02:38:21;28.33;;;17.38;;
73938;SDS011;62291;47.554;8.504;2022-10-20T02:40:47;25.73;;;17.35;;
73938;SDS011;62291;47.554;8.504;2022-10-20T02:43:13;24.73;;;17.55;;
73938;SDS011;62291;47.554;8.504;2022-10-20T02:45:39;23.77;;;16.77;;
73938;SDS011;62291;47.554;8.504;2022-10-20T02:48:05;28.70;;;17.75;;
73938;SDS011;62291;47.554;8.504;2022-10-20T02:50:33;27.42;;;17.92;;
73938;SDS011;62291;47.554;8.504;2022-10-20T02:53:00;25.27;;;17.92;;
73938;SDS011;62291;47.554;8.504;2022-10-20T02:55:26;33.25;;;17.58;;
73938;SDS011;62291;47.554;8.504;2022-10-20T02:57:51;27.05;;;18.52;;
73938;SDS011;62291;47.554;8.504;2022-10-20T03:00:18;26.83;;;17.77;;
73938;SDS011;62291;47.554;8.504;2022-10-20T03:02:44;25.23;;;16.95;;
73938;SDS011;62291;47.554;8.504;2022-10-20T03:05:11;23.95;;;17.20;;
73938;SDS011;62291;47.554;8.504;2022-10-20T03:07:37;28.35;;;17.95;;
73938;SDS011;62291;47.554;8.504;2022-10-20T03:10:03;25.35;;;17.20;;
73938;SDS011;62291;47.554;8.504;2022-10-20T03:12:30;28.38;;;17.77;;
73938;SDS011;62291;47.554;8.504;2022-10-20T03:14:55;24.40;;;16.70;;
73938;SDS011;62291;47.554;8.504;2022-10-20T03:17:21;26.08;;;16.88;;
73938;SDS011;62291;47.554;8.504;2022-10-20T03:19:47;25.73;;;17.17;;
73938;SDS011;62291;47.554;8.504;2022-10-20T03:22:13;31.42;;;17.80;;
73938;SDS011;62291;47.554;8.504;2022-10-20T03:24:38;27.70;;;18.00;;
73938;SDS011;62291;47.554;8.504;2022-10-20T03:27:04;27.58;;;17.25;;
73938;SDS011;62291;47.554;8.504;2022-10-20T03:29:30;28.30;;;17.58;;
73938;SDS011;62291;47.554;8.504;2022-10-20T03:31:56;31.13;;;18.20;;
73938;SDS011;62291;47.554;8.504;2022-10-20T03:34:22;28.17;;;18.35;;
73938;SDS011;62291;47.554;8.504;2022-10-20T03:36:48;30.90;;;18.08;;
73938;SDS011;62291;47.554;8.504;2022-10-20T03:39:14;25.30;;;17.73;;
73938;SDS011;62291;47.554;8.504;2022-10-20T03:41:40;27.92;;;17.77;;
73938;SDS011;62291;47.554;8.504;2022-10-20T03:44:06;23.83;;;17.15;;
73938;SDS011;62291;47.554;8.504;2022-10-20T03:46:31;29.25;;;17.70;;
73938;SDS011;62291;47.554;8.504;2022-10-20T03:48:57;26.40;;;16.85;;
73938;SDS011;62291;47.554;8.504;2022-10-20T03:51:23;27.08;;;17.38;;
73938;SDS011;62291;47.554;8.504;2022-10-20T03:53:49;25.05;;;17.35;;
73938;SDS011;62291;47.554;8.504;2022-10-20T03:56:16;27.35;;;16.98;;
73938;SDS011;62291;47.554;8.504;2022-10-20T03:58:43;24.08;;;17.35;;
73938;SDS011;62291;47.554;8.504;2022-10-20T04:01:12;28.67;;;16.80;;
73938;SDS011;62291;47.554;8.504;2022-10-20T04:03:40;23.13;;;17.20;;
73938;SDS011;62291;47.554;8.504;2022-10-20T04:06:06;27.08;;;17.27;;
73938;SDS011;62291;47.554;8.504;2022-10-20T04:08:31;29.65;;;16.85;;
73938;SDS011;62291;47.554;8.504;2022-10-20T04:10:58;27.25;;;17.90;;
73938;SDS011;62291;47.554;8.504;2022-10-20T04:13:24;32.42;;;18.17;;
73938;SDS011;62291;47.554;8.504;2022-10-20T04:15:50;28.92;;;18.10;;
73938;SDS011;62291;47.554;8.504;2022-10-20T04:18:16;26.30;;;17.92;;
73938;SDS011;62291;47.554;8.504;2022-10-20T04:20:42;27.50;;;17.48;;
73938;SDS011;62291;47.554;8.504;2022-10-20T04:23:07;28.02;;;18.75;;
73938;SDS011;62291;47.554;8.504;2022-10-20T04:25:33;29.05;;;18.10;;
73938;SDS011;62291;47.554;8.504;2022-10-20T04:27:59;27.17;;;17.73;;
73938;SDS011;62291;47.554;8.504;2022-10-20T04:30:25;31.02;;;16.85;;
73938;SDS011;62291;47.554;8.504;2022-10-20T04:32:51;28.25;;;16.95;;
73938;SDS011;62291;47.554;8.504;2022-10-20T04:35:16;30.30;;;17.85;;
73938;SDS011;62291;47.554;8.504;2022-10-20T04:37:42;35.05;;;18.52;;
73938;SDS011;62291;47.554;8.504;2022-10-20T04:40:08;30.33;;;18.40;;
73938;SDS011;62291;47.554;8.504;2022-10-20T04:42:34;28.75;;;17.80;;
73938;SDS011;62291;47.554;8.504;2022-10-20T04:45:00;23.88;;;16.60;;
73938;SDS011;62291;47.554;8.504;2022-10-20T04:47:30;28.35;;;18.48;;
73938;SDS011;62291;47.554;8.504;2022-10-20T04:49:56;28.77;;;18.00;;
73938;SDS011;62291;47.554;8.504;2022-10-20T04:52:22;29.90;;;18.15;;
73938;SDS011;62291;47.554;8.504;2022-10-20T04:54:48;24.20;;;17.67;;
73938;SDS011;62291;47.554;8.504;2022-10-20T04:57:14;31.17;;;18.98;;
73938;SDS011;62291;47.554;8.504;2022-10-20T04:59:39;26.95;;;18.38;;
73938;SDS011;62291;47.554;8.504;2022-10-20T05:02:05;28.25;;;17.20;;
73938;SDS011;62291;47.554;8.504;2022-10-20T05:04:31;32.75;;;18.83;;
73938;SDS011;62291;47.554;8.504;2022-10-20T05:06:57;28.10;;;18.45;;
73938;SDS011;62291;47.554;8.504;2022-10-20T05:09:22;30.15;;;17.63;;
73938;SDS011;62291;47.554;8.504;2022-10-20T05:11:48;30.50;;;18.60;;
73938;SDS011;62291;47.554;8.504;2022-10-20T05:14:14;29.58;;;18.42;;
73938;SDS011;62291;47.554;8.504;2022-10-20T05:16:39;30.52;;;19.48;;
73938;SDS011;62291;47.554;8.504;2022-10-20T05:19:05;34.15;;;19.13;;
73938;SDS011;62291;47.554;8.504;2022-10-20T05:21:31;32.88;;;18.80;;
73938;SDS011;62291;47.554;8.504;2022-10-20T05:24:01;26.30;;;18.27;;
73938;SDS011;62291;47.554;8.504;2022-10-20T05:26:29;30.42;;;18.88;;
73938;SDS011;62291;47.554;8.504;2022-10-20T05:28:58;34.38;;;19.75;;
73938;SDS011;62291;47.554;8.504;2022-10-20T05:31:25;31.20;;;19.23;;
73938;SDS011;62291;47.554;8.504;2022-10-20T05:33:52;33.10;;;19.23;;
73938;SDS011;62291;47.554;8.504;2022-10-20T05:36:23;27.25;;;18.50;;
73938;SDS011;62291;47.554;8.504;2022-10-20T05:38:50;25.73;;;18.58;;
73938;SDS011;62291;47.554;8.504;2022-10-20T05:41:19;30.85;;;18.95;;
73938;SDS011;62291;47.554;8.504;2022-10-20T05:43:56;31.65;;;18.00;;
73938;SDS011;62291;47.554;8.504;2022-10-20T05:46:24;31.13;;;17.40;;
73938;SDS011;62291;47.554;8.504;2022-10-20T05:48:52;29.58;;;17.52;;
73938;SDS011;62291;47.554;8.504;2022-10-20T05:51:20;31.67;;;19.27;;
73938;SDS011;62291;47.554;8.504;2022-10-20T05:53:49;32.20;;;20.40;;
73938;SDS011;62291;47.554;8.504;2022-10-20T05:56:17;30.17;;;21.35;;
73938;SDS011;62291;47.554;8.504;2022-10-20T05:58:45;32.38;;;20.98;;
73938;SDS011;62291;47.554;8.504;2022-10-20T06:01:15;30.95;;;20.80;;
73938;SDS011;62291;47.554;8.504;2022-10-20T06:03:57;36.90;;;22.05;;
73938;SDS011;62291;47.554;8.504;2022-10-20T06:06:27;33.45;;;21.25;;
73938;SDS011;62291;47.554;8.504;2022-10-20T06:08:54;30.05;;;20.52;;
73938;SDS011;62291;47.554;8.504;2022-10-20T06:11:21;29.45;;;19.02;;
73938;SDS011;62291;47.554;8.504;2022-10-20T06:13:48;30.77;;;20.13;;
73938;SDS011;62291;47.554;8.504;2022-10-20T06:16:15;29.45;;;20.63;;
73938;SDS011;62291;47.554;8.504;2022-10-20T06:19:00;32.92;;;21.30;;
73938;SDS011;62291;47.554;8.504;2022-10-20T06:21:27;32.65;;;22.15;;
73938;SDS011;62291;47.554;8.504;2022-10-20T06:23:54;36.25;;;23.35;;
73938;SDS011;62291;47.554;8.504;2022-10-20T06:26:22;37.58;;;23.70;;
73938;SDS011;62291;47.554;8.504;2022-10-20T06:28:53;29.63;;;21.50;;
73938;SDS011;62291;47.554;8.504;2022-10-20T06:33:50;33.78;;;21.98;;
73938;SDS011;62291;47.554;8.504;2022-10-20T06:36:17;33.88;;;23.35;;
73938;SDS011;62291;47.554;8.504;2022-10-20T06:38:43;32.38;;;21.20;;
73938;SDS011;62291;47.554;8.504;2022-10-20T06:41:11;30.58;;;21.70;;
73938;SDS011;62291;47.554;8.504;2022-10-20T06:43:39;29.33;;;21.35;;
73938;SDS011;62291;47.554;8.504;2022-10-20T06:46:06;30.45;;;21.23;;
73938;SDS011;62291;47.554;8.504;2022-10-20T06:48:36;33.13;;;20.73;;
73938;SDS011;62291;47.554;8.504;2022-10-20T06:51:03;31.70;;;20.95;;
73938;SDS011;62291;47.554;8.504;2022-10-20T06:53:30;32.63;;;22.30;;
73938;SDS011;62291;47.554;8.504;2022-10-20T06:56:33;33.35;;;23.73;;
73938;SDS011;62291;47.554;8.504;2022-10-20T06:58:53;32.92;;;22.23;;
73938;SDS011;62291;47.554;8.504;2022-10-20T07:01:41;33.42;;;21.70;;
73938;SDS011;62291;47.554;8.504;2022-10-20T07:04:08;38.92;;;22.30;;
73938;SDS011;62291;47.554;8.504;2022-10-20T07:06:38;32.42;;;20.58;;
73938;SDS011;62291;47.554;8.504;2022-10-20T07:09:05;36.72;;;22.05;;
73938;SDS011;62291;47.554;8.504;2022-10-20T07:11:32;35.05;;;21.55;;
73938;SDS011;62291;47.554;8.504;2022-10-20T07:13:58;36.80;;;22.40;;
73938;SDS011;62291;47.554;8.504;2022-10-20T07:16:26;32.53;;;21.88;;
73938;SDS011;62291;47.554;8.504;2022-10-20T07:18:54;26.80;;;20.85;;
73938;SDS011;62291;47.554;8.504;2022-10-20T07:21:22;32.22;;;20.75;;
73938;SDS011;62291;47.554;8.504;2022-10-20T07:23:50;31.83;;;20.90;;
73938;SDS011;62291;47.554;8.504;2022-10-20T07:26:17;33.88;;;21.88;;
73938;SDS011;62291;47.554;8.504;2022-10-20T07:28:46;31.08;;;21.25;;
73938;SDS011;62291;47.554;8.504;2022-10-20T07:31:18;31.30;;;21.30;;
73938;SDS011;62291;47.554;8.504;2022-10-20T07:33:46;31.77;;;22.02;;
73938;SDS011;62291;47.554;8.504;2022-10-20T07:36:16;31.45;;;22.67;;
73938;SDS011;62291;47.554;8.504;2022-10-20T07:41:09;28.85;;;19.23;;
73938;SDS011;62291;47.554;8.504;2022-10-20T07:43:36;27.88;;;18.98;;
73938;SDS011;62291;47.554;8.504;2022-10-20T07:46:03;26.05;;;19.25;;
73938;SDS011;62291;47.554;8.504;2022-10-20T07:48:29;22.25;;;18.88;;
73938;SDS011;62291;47.554;8.504;2022-10-20T07:51:16;27.02;;;19.80;;
73938;SDS011;62291;47.554;8.504;2022-10-20T07:54:00;25.30;;;19.48;;
73938;SDS011;62291;47.554;8.504;2022-10-20T07:56:30;22.90;;;18.45;;
73938;SDS011;62291;47.554;8.504;2022-10-20T07:59:00;26.80;;;18.23;;
73938;SDS011;62291;47.554;8.504;2022-10-20T08:01:26;25.95;;;19.23;;
73938;SDS011;62291;47.554;8.504;2022-10-20T08:03:51;25.20;;;18.55;;
73938;SDS011;62291;47.554;8.504;2022-10-20T08:06:17;25.98;;;19.35;;
73938;SDS011;62291;47.554;8.504;2022-10-20T08:08:43;25.27;;;18.67;;
73938;SDS011;62291;47.554;8.504;2022-10-20T08:11:09;32.25;;;20.85;;
73938;SDS011;62291;47.554;8.504;2022-10-20T08:13:35;28.88;;;20.15;;
73938;SDS011;62291;47.554;8.504;2022-10-20T08:16:02;30.42;;;20.08;;
73938;SDS011;62291;47.554;8.504;2022-10-20T08:18:28;25.73;;;19.40;;
73938;SDS011;62291;47.554;8.504;2022-10-20T08:21:04;27.63;;;19.55;;
73938;SDS011;62291;47.554;8.504;2022-10-20T08:26:16;26.15;;;19.67;;
73938;SDS011;62291;47.554;8.504;2022-10-20T08:28:44;23.58;;;19.63;;
73938;SDS011;62291;47.554;8.504;2022-10-20T08:31:10;25.08;;;19.02;;
73938;SDS011;62291;47.554;8.504;2022-10-20T08:33:36;24.27;;;19.73;;
73938;SDS011;62291;47.554;8.504;2022-10-20T08:36:04;25.90;;;19.38;;
73938;SDS011;62291;47.554;8.504;2022-10-20T08:38:32;26.38;;;19.85;;
73938;SDS011;62291;47.554;8.504;2022-10-20T08:40:58;27.98;;;20.20;;
73938;SDS011;62291;47.554;8.504;2022-10-20T08:43:25;27.88;;;19.98;;
73938;SDS011;62291;47.554;8.504;2022-10-20T08:45:52;26.83;;;19.58;;
73938;SDS011;62291;47.554;8.504;2022-10-20T08:48:19;32.17;;;21.42;;
73938;SDS011;62291;47.554;8.504;2022-10-20T08:50:50;27.30;;;20.02;;
73938;SDS011;62291;47.554;8.504;2022-10-20T08:53:18;29.35;;;20.52;;
73938;SDS011;62291;47.554;8.504;2022-10-20T08:55:45;23.52;;;19.25;;
73938;SDS011;62291;47.554;8.504;2022-10-20T08:58:13;24.90;;;18.77;;
73938;SDS011;62291;47.554;8.504;2022-10-20T09:00:47;27.88;;;20.17;;
73938;SDS011;62291;47.554;8.504;2022-10-20T09:06:12;26.30;;;20.58;;
73938;SDS011;62291;47.554;8.504;2022-10-20T09:08:38;27.63;;;20.25;;
73938;SDS011;62291;47.554;8.504;2022-10-20T09:11:06;28.02;;;20.95;;
73938;SDS011;62291;47.554;8.504;2022-10-20T09:13:35;27.67;;;20.20;;
73938;SDS011;62291;47.554;8.504;2022-10-20T09:16:03;26.05;;;20.67;;
73938;SDS011;62291;47.554;8.504;2022-10-20T09:18:42;28.63;;;20.25;;
73938;SDS011;62291;47.554;8.504;2022-10-20T09:21:12;25.98;;;19.38;;
73938;SDS011;62291;47.554;8.504;2022-10-20T09:23:43;25.73;;;19.90;;
73938;SDS011;62291;47.554;8.504;2022-10-20T09:26:14;32.63;;;20.52;;
73938;SDS011;62291;47.554;8.504;2022-10-20T09:28:42;30.52;;;19.55;;
73938;SDS011;62291;47.554;8.504;2022-10-20T09:31:23;25.67;;;20.23;;
73938;SDS011;62291;47.554;8.504;2022-10-20T09:34:00;29.02;;;19.55;;
73938;SDS011;62291;47.554;8.504;2022-10-20T09:36:27;25.58;;;20.50;;
73938;SDS011;62291;47.554;8.504;2022-10-20T09:38:55;25.77;;;19.40;;
73938;SDS011;62291;47.554;8.504;2022-10-20T09:41:25;25.52;;;19.60;;
73938;SDS011;62291;47.554;8.504;2022-10-20T09:43:57;30.13;;;19.88;;
73938;SDS011;62291;47.554;8.504;2022-10-20T09:46:36;29.05;;;20.48;;
73938;SDS011;62291;47.554;8.504;2022-10-20T09:49:23;32.50;;;20.50;;
73938;SDS011;62291;47.554;8.504;2022-10-20T09:51:53;26.45;;;19.85;;
73938;SDS011;62291;47.554;8.504;2022-10-20T09:54:19;30.45;;;20.48;;
73938;SDS011;62291;47.554;8.504;2022-10-20T09:56:48;28.27;;;19.52;;
73938;SDS011;62291;47.554;8.504;2022-10-20T10:01:50;33.95;;;20.23;;
73938;SDS011;62291;47.554;8.504;2022-10-20T10:04:30;29.02;;;20.40;;
73938;SDS011;62291;47.554;8.504;2022-10-20T10:06:57;27.25;;;19.60;;
73938;SDS011;62291;47.554;8.504;2022-10-20T10:09:30;33.17;;;21.10;;
73938;SDS011;62291;47.554;8.504;2022-10-20T10:14:49;30.70;;;19.88;;
73938;SDS011;62291;47.554;8.504;2022-10-20T10:17:29;25.58;;;19.17;;
73938;SDS011;62291;47.554;8.504;2022-10-20T10:20:02;26.45;;;20.23;;
73938;SDS011;62291;47.554;8.504;2022-10-20T10:22:47;29.52;;;20.50;;
73938;SDS011;62291;47.554;8.504;2022-10-20T10:25:24;29.80;;;19.52;;
73938;SDS011;62291;47.554;8.504;2022-10-20T10:28:04;29.05;;;19.50;;
73938;SDS011;62291;47.554;8.504;2022-10-20T10:30:44;28.45;;;19.65;;
73938;SDS011;62291;47.554;8.504;2022-10-20T10:35:49;35.60;;;21.20;;
73938;SDS011;62291;47.554;8.504;2022-10-20T10:38:15;28.90;;;20.70;;
73938;SDS011;62291;47.554;8.504;2022-10-20T10:43:27;31.67;;;20.38;;
73938;SDS011;62291;47.554;8.504;2022-10-20T10:46:09;31.90;;;19.70;;
73938;SDS011;62291;47.554;8.504;2022-10-20T10:57:14;29.83;;;19.38;;
73938;SDS011;62291;47.554;8.504;2022-10-20T10:59:48;31.60;;;21.00;;
73938;SDS011;62291;47.554;8.504;2022-10-20T11:02:33;32.70;;;20.42;;
73938;SDS011;62291;47.554;8.504;2022-10-20T11:13:20;27.25;;;18.65;;
73938;SDS011;62291;47.554;8.504;2022-10-20T11:16:04;30.40;;;20.15;;
73938;SDS011;62291;47.554;8.504;2022-10-20T11:27:02;31.30;;;18.75;;
73938;SDS011;62291;47.554;8.504;2022-10-20T11:29:47;26.83;;;18.83;;
73938;SDS011;62291;47.554;8.504;2022-10-20T11:32:27;28.33;;;19.38;;
73938;SDS011;62291;47.554;8.504;2022-10-20T11:35:26;25.38;;;18.35;;
73938;SDS011;62291;47.554;8.504;2022-10-20T11:40:48;25.92;;;18.70;;
73938;SDS011;62291;47.554;8.504;2022-10-20T11:43:26;29.27;;;18.77;;
73938;SDS011;62291;47.554;8.504;2022-10-20T11:46:04;24.52;;;18.25;;
73938;SDS011;62291;47.554;8.504;2022-10-20T11:48:33;26.92;;;19.35;;
73938;SDS011;62291;47.554;8.504;2022-10-20T11:53:52;28.10;;;17.80;;
73938;SDS011;62291;47.554;8.504;2022-10-20T11:59:41;26.33;;;16.60;;
73938;SDS011;62291;47.554;8.504;2022-10-20T12:19:04;27.00;;;17.38;;
73938;SDS011;62291;47.554;8.504;2022-10-20T12:22:01;30.95;;;17.23;;
73938;SDS011;62291;47.554;8.504;2022-10-20T12:24:34;28.70;;;16.95;;
73938;SDS011;62291;47.554;8.504;2022-10-20T12:37:35;25.17;;;16.80;;
73938;SDS011;62291;47.554;8.504;2022-10-20T12:42:32;23.70;;;16.95;;
73938;SDS011;62291;47.554;8.504;2022-10-20T12:45:05;25.90;;;17.33;;
73938;SDS011;62291;47.554;8.504;2022-10-20T12:47:34;27.40;;;17.05;;
73938;SDS011;62291;47.554;8.504;2022-10-20T12:50:08;23.23;;;16.23;;
73938;SDS011;62291;47.554;8.504;2022-10-20T12:52:51;26.98;;;17.88;;
73938;SDS011;62291;47.554;8.504;2022-10-20T12:55:18;26.65;;;17.17;;
73938;SDS011;62291;47.554;8.504;2022-10-20T12:58:11;26.80;;;17.65;;
73938;SDS011;62291;47.554;8.504;2022-10-20T13:16:45;26.83;;;17.83;;
73938;SDS011;62291;47.554;8.504;2022-10-20T13:19:15;29.00;;;18.52;;
73938;SDS011;62291;47.554;8.504;2022-10-20T13:21:48;28.25;;;18.20;;
73938;SDS011;62291;47.554;8.504;2022-10-20T13:24:19;26.83;;;18.48;;
73938;SDS011;62291;47.554;8.504;2022-10-20T13:26:55;28.30;;;18.17;;
73938;SDS011;62291;47.554;8.504;2022-10-20T13:29:26;29.98;;;18.95;;
73938;SDS011;62291;47.554;8.504;2022-10-20T13:34:46;24.70;;;17.25;;
73938;SDS011;62291;47.554;8.504;2022-10-20T13:40:16;25.38;;;17.40;;
73938;SDS011;62291;47.554;8.504;2022-10-20T13:43:07;27.20;;;17.48;;
73938;SDS011;62291;47.554;8.504;2022-10-20T13:51:04;27.02;;;17.60;;
73938;SDS011;62291;47.554;8.504;2022-10-20T13:53:46;25.13;;;17.70;;
73938;SDS011;62291;47.554;8.504;2022-10-20T13:58:41;29.85;;;17.05;;
73938;SDS011;62291;47.554;8.504;2022-10-20T14:01:21;29.58;;;16.63;;
73938;SDS011;62291;47.554;8.504;2022-10-20T14:03:48;25.70;;;16.02;;
73938;SDS011;62291;47.554;8.504;2022-10-20T14:09:13;26.27;;;17.75;;
73938;SDS011;62291;47.554;8.504;2022-10-20T14:11:42;24.73;;;16.77;;
73938;SDS011;62291;47.554;8.504;2022-10-20T14:14:13;24.77;;;18.60;;
73938;SDS011;62291;47.554;8.504;2022-10-20T14:19:13;29.10;;;17.65;;
73938;SDS011;62291;47.554;8.504;2022-10-20T14:21:45;30.98;;;18.45;;
73938;SDS011;62291;47.554;8.504;2022-10-20T14:24:16;26.42;;;17.40;;
73938;SDS011;62291;47.554;8.504;2022-10-20T14:29:13;26.23;;;17.42;;
73938;SDS011;62291;47.554;8.504;2022-10-20T14:31:41;25.73;;;17.35;;
73938;SDS011;62291;47.554;8.504;2022-10-20T14:34:22;22.73;;;18.13;;
73938;SDS011;62291;47.554;8.504;2022-10-20T14:36:49;33.65;;;18.70;;
73938;SDS011;62291;47.554;8.504;2022-10-20T14:41:49;29.48;;;18.25;;
73938;SDS011;62291;47.554;8.504;2022-10-20T14:44:17;31.25;;;18.20;;
73938;SDS011;62291;47.554;8.504;2022-10-20T14:46:46;36.67;;;17.48;;
73938;SDS011;62291;47.554;8.504;2022-10-20T14:49:14;28.23;;;17.08;;
73938;SDS011;62291;47.554;8.504;2022-10-20T14:51:43;30.80;;;16.80;;
73938;SDS011;62291;47.554;8.504;2022-10-20T14:56:44;26.00;;;17.90;;
73938;SDS011;62291;47.554;8.504;2022-10-20T14:59:15;26.75;;;16.52;;
73938;SDS011;62291;47.554;8.504;2022-10-20T15:04:26;28.17;;;18.02;;
73938;SDS011;62291;47.554;8.504;2022-10-20T15:07:03;28.80;;;17.10;;
73938;SDS011;62291;47.554;8.504;2022-10-20T15:12:17;33.45;;;18.08;;
73938;SDS011;62291;47.554;8.504;2022-10-20T15:22:55;25.98;;;18.10;;
73938;SDS011;62291;47.554;8.504;2022-10-20T15:25:26;28.67;;;16.70;;
73938;SDS011;62291;47.554;8.504;2022-10-20T15:27:54;31.25;;;18.65;;
73938;SDS011;62291;47.554;8.504;2022-10-20T15:30:21;27.77;;;17.80;;
73938;SDS011;62291;47.554;8.504;2022-10-20T15:32:48;29.02;;;19.52;;
73938;SDS011;62291;47.554;8.504;2022-10-20T15:35:15;27.80;;;18.77;;
73938;SDS011;62291;47.554;8.504;2022-10-20T15:37:47;33.30;;;18.70;;
73938;SDS011;62291;47.554;8.504;2022-10-20T15:40:17;24.92;;;18.75;;
73938;SDS011;62291;47.554;8.504;2022-10-20T15:42:44;28.20;;;18.85;;
73938;SDS011;62291;47.554;8.504;2022-10-20T15:45:20;28.95;;;19.02;;
73938;SDS011;62291;47.554;8.504;2022-10-20T15:47:48;27.00;;;18.77;;
73938;SDS011;62291;47.554;8.504;2022-10-20T15:50:14;30.00;;;19.48;;
73938;SDS011;62291;47.554;8.504;2022-10-20T15:52:40;28.15;;;19.52;;
73938;SDS011;62291;47.554;8.504;2022-10-20T15:55:28;28.83;;;18.63;;
73938;SDS011;62291;47.554;8.504;2022-10-20T15:57:55;33.45;;;19.17;;
73938;SDS011;62291;47.554;8.504;2022-10-20T16:00:21;27.98;;;18.33;;
73938;SDS011;62291;47.554;8.504;2022-10-20T16:02:49;26.33;;;18.17;;
73938;SDS011;62291;47.554;8.504;2022-10-20T16:05:16;29.35;;;19.88;;
73938;SDS011;62291;47.554;8.504;2022-10-20T16:07:43;30.88;;;19.17;;
73938;SDS011;62291;47.554;8.504;2022-10-20T16:10:09;31.90;;;19.58;;
73938;SDS011;62291;47.554;8.504;2022-10-20T16:12:36;28.10;;;18.73;;
73938;SDS011;62291;47.554;8.504;2022-10-20T16:15:03;27.27;;;18.85;;
73938;SDS011;62291;47.554;8.504;2022-10-20T16:17:30;30.52;;;19.52;;
73938;SDS011;62291;47.554;8.504;2022-10-20T16:19:55;31.05;;;20.48;;
73938;SDS011;62291;47.554;8.504;2022-10-20T16:22:21;32.47;;;20.65;;
73938;SDS011;62291;47.554;8.504;2022-10-20T16:24:47;33.20;;;20.45;;
73938;SDS011;62291;47.554;8.504;2022-10-20T16:27:13;26.63;;;19.08;;
73938;SDS011;62291;47.554;8.504;2022-10-20T16:29:39;26.83;;;19.60;;
73938;SDS011;62291;47.554;8.504;2022-10-20T16:32:05;28.20;;;19.35;;
73938;SDS011;62291;47.554;8.504;2022-10-20T16:34:31;29.77;;;19.88;;
73938;SDS011;62291;47.554;8.504;2022-10-20T16:36:57;31.02;;;19.75;;
73938;SDS011;62291;47.554;8.504;2022-10-20T16:39:22;29.80;;;20.15;;
73938;SDS011;62291;47.554;8.504;2022-10-20T16:41:48;34.67;;;21.60;;
73938;SDS011;62291;47.554;8.504;2022-10-20T16:44:14;37.53;;;22.17;;
73938;SDS011;62291;47.554;8.504;2022-10-20T16:46:39;30.85;;;21.40;;
73938;SDS011;62291;47.554;8.504;2022-10-20T16:49:05;39.22;;;21.80;;
73938;SDS011;62291;47.554;8.504;2022-10-20T16:51:31;36.38;;;20.98;;
73938;SDS011;62291;47.554;8.504;2022-10-20T16:53:57;29.17;;;20.60;;
73938;SDS011;62291;47.554;8.504;2022-10-20T16:56:23;29.65;;;21.48;;
73938;SDS011;62291;47.554;8.504;2022-10-20T16:58:50;35.50;;;21.88;;
73938;SDS011;62291;47.554;8.504;2022-10-20T17:01:17;32.45;;;21.73;;
73938;SDS011;62291;47.554;8.504;2022-10-20T17:03:48;30.13;;;20.35;;
73938;SDS011;62291;47.554;8.504;2022-10-20T17:06:16;31.90;;;21.17;;
73938;SDS011;62291;47.554;8.504;2022-10-20T17:08:44;34.45;;;20.88;;
73938;SDS011;62291;47.554;8.504;2022-10-20T17:11:11;29.63;;;21.50;;
73938;SDS011;62291;47.554;8.504;2022-10-20T17:13:39;35.38;;;21.52;;
73938;SDS011;62291;47.554;8.504;2022-10-20T17:16:07;37.42;;;20.40;;
73938;SDS011;62291;47.554;8.504;2022-10-20T17:18:35;32.63;;;21.67;;
73938;SDS011;62291;47.554;8.504;2022-10-20T17:21:01;33.25;;;21.58;;
73938;SDS011;62291;47.554;8.504;2022-10-20T17:23:29;30.80;;;19.92;;